Hlavní strana
METAR-TAF:

METAR-TAF

Letiště :

Lanseria, Jihoafrická republika

zeměpisná šířka: 25-56S, zeměpisná délka: 027-56E, výška: 1377 m

Aktuální stav počasí

Zpráva byla vytvořena před 20 minutami, v 06:47 UTC
Bezvětří
Teplota 15°C
Vlhkost vzduchu 59%
Tlak 1025 hPa
Viditelnost 10 km a více
Žádná oblačnost pod 1500 m, nevyskytují se cumulonimby.

METAR: FALA 200647Z 00000KT CAVOK 15/07 Q1025 NOSIG

Čas: 09:07 (07:07 UTC)

Předpověď počasí

Zpráva byla vytvořena před 3 hodinami a 7 minutami, v 04:00 UTC
Předpověď platná od 20 v 06 UTC do 21 v 06 UTC
Severoseverozápadní vítr 8 kt
Viditelnost 10 km a více
Žádná oblačnost pod 1500 m, nevyskytují se cumulonimby.
Změna
od 20 v 17 UTC do 20 v 19 UTC
vítr z různých směrů 3 kt

TAF: FALA 200400Z 2006/2106 33008KT CAVOK BECMG 2017/2019 VRB03KT TX26/2013Z TN06/2104Z

Stav a předpovědi počasí z více než 4 000 letišť (zprávy METAR a TAF).

Červené a žluté tečky na mapě představují dostupné meteorologické stanice.

Když kurzor umístíte na tečku, zobrazí se název stanice.

Pak kliknutím zobrazíte stav a předpověď počasí.

Chcete-li změnit mapu, kliknutím na zelené tlačítko se znaménkem +mapu přiblížíte, kliknutím na zelené tlačítko se znaménkem – mapu oddálíte a kliknutím na zelené šipky přejdete na sousední mapy.


METAR-TAF: